Time;durP1;ratioP1;P1;durP2;ratioP2;P2;SDS_P1;SDS_P2;PMS_P1;PMS_P2;Temp;Humidity;BMP_temperature;BMP_pressure;BME280_temperature;BME280_humidity;BME280_pressure;Samples;Min_cycle;Max_cycle;Signal;HPM_P1;HPM_P2
2024/01/11 00:02:17;;;;;;;9.23;6.87;;;-6.80;99.90;;;;;;5010822;28;20182;-63
2024/01/11 00:04:43;;;;;;;9.00;6.30;;;-6.90;99.90;;;;;;5009623;28;20242;-61
2024/01/11 00:07:09;;;;;;;8.67;5.70;;;-6.90;99.90;;;;;;5010957;28;20434;-65
2024/01/11 00:09:40;;;;;;;9.17;6.23;;;-6.90;99.90;;;;;;5005043;28;20416;-63
2024/01/11 00:12:05;;;;;;;11.13;5.90;;;-6.90;99.90;;;;;;5010783;28;20423;-64
2024/01/11 00:14:31;;;;;;;15.00;7.97;;;-6.90;99.90;;;;;;5011066;28;20442;-65
2024/01/11 00:16:57;;;;;;;11.70;6.17;;;-6.90;99.90;;;;;;5010599;28;20431;-65
2024/01/11 00:19:22;;;;;;;16.87;7.33;;;-6.90;99.90;;;;;;5010681;28;20561;-65
2024/01/11 00:21:48;;;;;;;9.93;7.10;;;-6.90;99.90;;;;;;5012627;28;20175;-64
2024/01/11 00:24:13;;;;;;;14.37;8.17;;;-6.90;99.90;;;;;;5013046;28;20230;-65
2024/01/11 00:26:39;;;;;;;11.90;9.20;;;-6.80;99.90;;;;;;5022464;28;20195;-65
2024/01/11 00:29:04;;;;;;;9.80;6.50;;;-6.80;99.90;;;;;;5017633;28;20848;-64
2024/01/11 00:31:30;;;;;;;11.63;6.93;;;-6.70;99.90;;;;;;5010855;28;20172;-63
2024/01/11 00:33:56;;;;;;;12.23;7.67;;;-6.70;99.90;;;;;;5015316;28;20176;-64
2024/01/11 00:36:21;;;;;;;13.47;7.20;;;-6.60;99.90;;;;;;5013361;28;20590;-61
2024/01/11 00:38:47;;;;;;;10.80;7.00;;;-6.60;99.90;;;;;;5015175;28;20200;-60
2024/01/11 00:41:12;;;;;;;7.63;6.40;;;-6.60;99.90;;;;;;5010389;28;20255;-63
2024/01/11 00:43:38;;;;;;;7.07;6.23;;;-6.50;99.90;;;;;;5010081;28;20593;-63
2024/01/11 00:46:03;;;;;;;14.30;7.83;;;-6.60;99.90;;;;;;5010292;28;20218;-62
2024/01/11 00:48:29;;;;;;;9.30;5.97;;;-6.60;99.90;;;;;;5010635;28;20169;-65
2024/01/11 00:50:54;;;;;;;10.40;5.33;;;-6.60;99.90;;;;;;5010347;28;20837;-64
2024/01/11 00:53:20;;;;;;;7.93;5.20;;;-6.50;99.90;;;;;;5009770;28;20556;-64
2024/01/11 00:55:46;;;;;;;10.30;5.77;;;-6.50;99.90;;;;;;5009563;28;20678;-64
2024/01/11 00:58:11;;;;;;;7.33;5.67;;;-6.50;99.90;;;;;;5010223;28;20516;-63
2024/01/11 01:00:37;;;;;;;10.60;5.73;;;-6.50;99.90;;;;;;5010675;28;20169;-63
2024/01/11 01:03:03;;;;;;;11.70;5.90;;;-6.50;99.90;;;;;;5008853;28;20643;-63
2024/01/11 01:05:28;;;;;;;14.90;6.37;;;-6.50;99.90;;;;;;5010294;28;20173;-63
2024/01/11 01:07:54;;;;;;;8.57;5.47;;;-6.40;99.90;;;;;;5010577;28;20411;-64
2024/01/11 01:10:20;;;;;;;10.30;6.40;;;-6.40;99.90;;;;;;5018125;28;20266;-64
2024/01/11 01:12:45;;;;;;;9.40;6.20;;;-6.50;99.90;;;;;;5009992;28;20183;-63
2024/01/11 01:15:11;;;;;;;12.50;6.77;;;-6.50;99.90;;;;;;5010317;28;20248;-65
2024/01/11 01:17:37;;;;;;;6.53;4.83;;;-6.50;99.90;;;;;;5000996;28;20176;-65
2024/01/11 01:20:03;;;;;;;10.07;6.30;;;-6.50;99.90;;;;;;4999307;28;20203;-63
2024/01/11 01:22:29;;;;;;;10.80;6.60;;;-6.50;99.90;;;;;;5012932;28;20412;-66
2024/01/11 01:24:54;;;;;;;10.80;6.20;;;-6.50;99.90;;;;;;5002771;28;20489;-65
2024/01/11 01:27:20;;;;;;;8.70;6.77;;;-6.50;99.90;;;;;;5012886;28;20201;-63
2024/01/11 01:29:46;;;;;;;17.23;5.77;;;-6.50;99.90;;;;;;5010146;28;20226;-65
2024/01/11 01:32:11;;;;;;;13.40;6.47;;;-6.60;99.90;;;;;;5009964;28;20180;-63
2024/01/11 01:34:37;;;;;;;8.93;5.97;;;-6.60;99.90;;;;;;5010256;28;20183;-62
2024/01/11 01:37:03;;;;;;;11.10;6.63;;;-6.50;99.90;;;;;;5000870;28;20231;-63
2024/01/11 01:39:28;;;;;;;15.77;7.47;;;-6.50;99.90;;;;;;5016949;28;20204;-64
2024/01/11 01:41:54;;;;;;;14.53;7.93;;;-6.50;99.90;;;;;;5003223;28;20263;-64
2024/01/11 01:44:19;;;;;;;12.97;6.80;;;-6.50;99.90;;;;;;5009286;28;20191;-64
2024/01/11 01:46:45;;;;;;;14.60;6.70;;;-6.60;99.90;;;;;;5009895;28;20801;-63
2024/01/11 01:49:11;;;;;;;9.17;5.97;;;-6.60;99.90;;;;;;5016981;28;20639;-63
2024/01/11 01:51:38;;;;;;;15.45;8.55;;;-6.60;99.90;;;;;;5004634;28;20184;-63
2024/01/11 01:54:05;;;;;;;10.13;7.00;;;-6.60;99.90;;;;;;5010276;28;20218;-63
2024/01/11 01:56:31;;;;;;;12.63;5.63;;;-6.70;99.90;;;;;;5010982;28;20290;-65
2024/01/11 01:58:58;;;;;;;11.20;7.50;;;-6.50;99.90;;;;;;5021043;28;20478;-64
2024/01/11 02:01:25;;;;;;;12.57;7.57;;;-6.60;99.90;;;;;;5007448;28;21551;-63
2024/01/11 02:03:54;;;;;;;11.60;6.28;;;-6.50;99.90;;;;;;5013096;28;20176;-63
2024/01/11 02:06:24;;;;;;;11.60;6.22;;;-6.50;99.90;;;;;;5013164;28;20330;-64
2024/01/11 02:08:53;;;;;;;17.83;8.00;;;-6.50;99.90;;;;;;5021016;28;20164;-63
2024/01/11 02:11:21;;;;;;;20.07;9.20;;;-6.40;99.90;;;;;;5013105;28;20419;-64
2024/01/11 02:13:46;;;;;;;14.43;7.13;;;-6.30;99.90;;;;;;5013028;28;20426;-65
2024/01/11 02:16:13;;;;;;;13.53;8.43;;;-6.30;99.90;;;;;;5016119;28;20708;-63
2024/01/11 02:18:39;;;;;;;12.10;8.03;;;-6.20;99.90;;;;;;5012971;28;20203;-64
2024/01/11 02:21:09;;;;;;;15.07;6.63;;;-6.10;99.90;;;;;;5011642;28;20418;-64
2024/01/11 02:23:39;;;;;;;14.93;8.33;;;-6.00;99.90;;;;;;5007262;28;20172;-64
2024/01/11 02:26:04;;;;;;;11.17;7.83;;;-6.00;99.90;;;;;;5014995;28;21106;-63
2024/01/11 02:28:30;;;;;;;11.13;6.83;;;-6.00;99.90;;;;;;5016026;28;20446;-64
2024/01/11 02:30:56;;;;;;;11.97;6.63;;;-5.90;99.90;;;;;;5014381;28;20608;-65
2024/01/11 02:33:22;;;;;;;14.37;7.53;;;-5.90;99.90;;;;;;5012653;28;20207;-62
2024/01/11 02:35:47;;;;;;;18.13;8.33;;;-5.90;99.90;;;;;;5014072;28;20198;-63
2024/01/11 02:38:14;;;;;;;12.50;8.10;;;-5.90;99.90;;;;;;5012351;28;20961;-63
2024/01/11 02:40:40;;;;;;;8.73;6.67;;;-5.90;99.90;;;;;;5011631;28;20761;-63
2024/01/11 02:43:10;;;;;;;14.90;6.50;;;-5.80;99.90;;;;;;4997559;28;20435;-65
2024/01/11 02:45:36;;;;;;;13.00;7.57;;;-5.80;99.90;;;;;;5011071;28;20443;-63
2024/01/11 02:48:01;;;;;;;9.90;6.03;;;-5.70;99.90;;;;;;5012458;28;20419;-63
2024/01/11 02:50:27;;;;;;;10.70;6.40;;;-5.80;99.90;;;;;;5020269;28;20419;-64
2024/01/11 02:52:53;;;;;;;13.40;7.30;;;-5.80;99.90;;;;;;5010624;28;20169;-63
2024/01/11 02:55:18;;;;;;;9.87;6.50;;;-5.80;99.90;;;;;;5012074;28;20223;-64
2024/01/11 02:57:44;;;;;;;14.00;6.47;;;-5.90;99.90;;;;;;5007115;28;20180;-63
2024/01/11 03:00:10;;;;;;;9.60;6.37;;;-5.80;99.90;;;;;;5008471;28;20766;-64
2024/01/11 03:02:37;;;;;;;13.00;6.90;;;-5.70;99.90;;;;;;5016098;28;20631;-62
2024/01/11 03:05:03;;;;;;;16.80;9.10;;;-5.90;99.90;;;;;;5015526;28;20458;-62
2024/01/11 03:07:30;;;;;;;13.93;6.73;;;-5.80;99.90;;;;;;5012557;28;20443;-64
2024/01/11 03:09:56;;;;;;;13.90;6.40;;;-5.80;99.90;;;;;;5013898;28;20704;-63
2024/01/11 03:12:21;;;;;;;18.93;7.83;;;-5.70;99.90;;;;;;4997802;28;20192;-62
2024/01/11 03:14:47;;;;;;;16.57;7.73;;;-5.70;99.90;;;;;;5008277;28;20419;-65
2024/01/11 03:17:13;;;;;;;17.90;8.47;;;-5.80;99.90;;;;;;5006994;28;20466;-65
2024/01/11 03:19:42;;;;;;;14.30;8.53;;;-5.80;99.90;;;;;;5011659;28;20473;-63
2024/01/11 03:22:07;;;;;;;15.90;8.20;;;-5.70;99.90;;;;;;5002283;28;20179;-63
2024/01/11 03:24:37;;;;;;;18.50;8.83;;;-5.70;99.90;;;;;;5010984;28;20934;-63
2024/01/11 03:27:02;;;;;;;20.83;8.23;;;-5.90;99.90;;;;;;5008587;28;20283;-63
2024/01/11 03:29:28;;;;;;;13.37;7.17;;;-5.80;99.90;;;;;;5009620;28;20422;-64
2024/01/11 03:31:53;;;;;;;12.27;8.43;;;-5.90;99.90;;;;;;5011819;28;20656;-65
2024/01/11 03:34:19;;;;;;;11.87;7.27;;;-5.80;99.90;;;;;;5011579;28;20275;-64
2024/01/11 03:36:44;;;;;;;14.97;7.50;;;-5.80;99.90;;;;;;5011796;28;20246;-63
2024/01/11 03:39:10;;;;;;;14.83;7.63;;;-5.70;99.90;;;;;;5011413;28;20219;-64
2024/01/11 03:41:36;;;;;;;16.50;7.70;;;-5.60;99.90;;;;;;5011966;28;20251;-65
2024/01/11 03:44:01;;;;;;;11.83;6.57;;;-5.60;99.90;;;;;;5002914;28;20604;-65
2024/01/11 03:46:27;;;;;;;11.23;7.17;;;-5.60;99.90;;;;;;4998779;28;20219;-64
2024/01/11 03:48:52;;;;;;;13.87;7.63;;;-5.60;99.90;;;;;;5012532;28;20180;-62
2024/01/11 03:51:18;;;;;;;14.37;7.70;;;-5.70;99.90;;;;;;5013294;28;20264;-64
2024/01/11 03:53:44;;;;;;;15.03;6.50;;;-5.70;99.90;;;;;;5011466;28;20183;-64
2024/01/11 03:56:10;;;;;;;13.47;7.67;;;-5.50;99.90;;;;;;5009921;28;20216;-63
2024/01/11 03:58:39;;;;;;;12.93;7.37;;;-5.50;99.90;;;;;;5011335;28;20282;-64
2024/01/11 04:01:04;;;;;;;13.70;7.67;;;-5.60;99.90;;;;;;5011266;28;20423;-62
2024/01/11 04:03:30;;;;;;;11.80;6.40;;;-5.60;99.90;;;;;;5006285;28;20435;-64
2024/01/11 04:05:55;;;;;;;13.50;6.30;;;-5.60;99.90;;;;;;5017222;28;20634;-65
2024/01/11 04:08:21;;;;;;;13.03;6.40;;;-5.60;99.90;;;;;;5016042;28;20188;-64
2024/01/11 04:10:46;;;;;;;12.30;8.17;;;-5.60;99.90;;;;;;5012959;28;20400;-65
2024/01/11 04:13:12;;;;;;;12.23;6.70;;;-5.60;99.90;;;;;;5013115;28;20180;-67
2024/01/11 04:15:38;;;;;;;11.50;6.30;;;-5.60;99.90;;;;;;5013282;28;20192;-64
2024/01/11 04:18:03;;;;;;;10.10;5.93;;;-5.50;99.90;;;;;;5012232;28;20473;-64
2024/01/11 04:20:29;;;;;;;9.43;6.33;;;-5.30;99.90;;;;;;5012679;28;20215;-63
2024/01/11 04:22:54;;;;;;;13.10;5.60;;;-5.30;99.90;;;;;;5009863;28;20666;-63
2024/01/11 04:25:21;;;;;;;18.50;8.13;;;-5.30;99.90;;;;;;5011500;28;20180;-63
2024/01/11 04:27:46;;;;;;;14.17;6.90;;;-5.20;99.90;;;;;;5019504;28;20203;-63
2024/01/11 04:30:12;;;;;;;12.20;5.77;;;-5.10;99.90;;;;;;5010525;28;20934;-63
2024/01/11 04:32:38;;;;;;;12.00;7.60;;;-5.10;99.90;;;;;;5016804;28;20180;-62
2024/01/11 04:35:04;;;;;;;12.80;5.73;;;-5.20;99.90;;;;;;5010623;28;20176;-65
2024/01/11 04:37:29;;;;;;;11.70;6.40;;;-5.20;99.90;;;;;;5010375;28;20280;-61
2024/01/11 04:39:55;;;;;;;16.17;7.73;;;-5.20;99.90;;;;;;5011333;28;20965;-60
2024/01/11 04:42:20;;;;;;;14.17;7.73;;;-5.20;99.90;;;;;;5010360;28;20172;-63
2024/01/11 04:44:46;;;;;;;14.23;9.80;;;-5.10;99.90;;;;;;5010206;28;20219;-65
2024/01/11 04:47:11;;;;;;;10.77;6.77;;;-5.00;99.90;;;;;;5010124;28;20200;-63
2024/01/11 04:49:37;;;;;;;15.50;8.37;;;-5.00;99.90;;;;;;5009970;28;20176;-63
2024/01/11 04:52:03;;;;;;;16.93;7.10;;;-4.90;99.90;;;;;;5010577;28;20190;-63
2024/01/11 04:54:28;;;;;;;12.00;7.00;;;-4.90;99.90;;;;;;5011213;28;20663;-63
2024/01/11 04:56:54;;;;;;;21.57;8.00;;;-4.80;99.90;;;;;;5015721;28;20438;-63
2024/01/11 04:59:20;;;;;;;14.00;7.87;;;-4.70;99.90;;;;;;5012015;28;20219;-63
2024/01/11 05:01:46;;;;;;;14.10;6.93;;;-4.70;99.90;;;;;;5010385;28;20179;-63
2024/01/11 05:04:11;;;;;;;20.47;8.77;;;-4.60;99.90;;;;;;4995701;28;20268;-63
2024/01/11 05:06:37;;;;;;;18.53;8.83;;;-4.60;99.90;;;;;;5007566;28;20687;-64
2024/01/11 05:09:04;;;;;;;14.77;7.63;;;-4.50;99.90;;;;;;5001621;28;20176;-62
2024/01/11 05:11:30;;;;;;;18.27;8.00;;;-4.50;99.90;;;;;;5003631;28;20192;-62
2024/01/11 05:13:56;;;;;;;15.47;6.93;;;-4.50;99.90;;;;;;5007565;28;20508;-62
2024/01/11 05:16:26;;;;;;;24.03;9.43;;;-4.40;99.90;;;;;;5009457;28;20212;-63
2024/01/11 05:18:54;;;;;;;19.60;7.63;;;-4.40;99.90;;;;;;5004547;28;20224;-63
2024/01/11 05:21:20;;;;;;;20.47;9.33;;;-4.30;99.90;;;;;;5001553;28;20446;-63
2024/01/11 05:23:45;;;;;;;19.97;6.30;;;-4.40;99.90;;;;;;5011480;28;20442;-65
2024/01/11 05:26:12;;;;;;;17.50;9.30;;;-4.40;99.90;;;;;;5021282;28;20443;-64
2024/01/11 05:28:38;;;;;;;19.50;8.67;;;-4.30;99.90;;;;;;5002657;28;20311;-64
2024/01/11 05:31:17;;;;;;;26.43;9.60;;;-4.30;99.90;;;;;;5016810;28;20509;-63
2024/01/11 05:33:43;;;;;;;16.23;7.83;;;-4.20;99.90;;;;;;5007676;28;20790;-63
2024/01/11 05:36:09;;;;;;;26.97;9.70;;;-4.20;99.90;;;;;;5013897;28;20493;-63
2024/01/11 05:38:35;;;;;;;22.50;8.87;;;-4.20;99.90;;;;;;5013320;28;20454;-63
2024/01/11 05:41:01;;;;;;;18.17;8.87;;;-4.20;99.90;;;;;;5011895;28;20491;-64
2024/01/11 05:43:27;;;;;;;15.43;9.60;;;-4.20;99.90;;;;;;5003032;28;20925;-62
2024/01/11 05:45:52;;;;;;;30.73;11.00;;;-4.20;99.90;;;;;;5015631;28;20462;-64
2024/01/11 05:48:18;;;;;;;21.17;9.23;;;-4.10;99.90;;;;;;5006701;28;20264;-64
2024/01/11 05:50:44;;;;;;;20.23;8.43;;;-4.00;99.90;;;;;;5012909;28;20558;-62
2024/01/11 05:53:11;;;;;;;24.37;9.83;;;-4.00;99.90;;;;;;5002254;28;20271;-63
2024/01/11 05:55:36;;;;;;;28.70;9.73;;;-4.00;99.90;;;;;;5011467;28;20438;-63
2024/01/11 05:58:02;;;;;;;22.37;10.20;;;-4.00;99.90;;;;;;5013003;28;20756;-62
2024/01/11 06:00:27;;;;;;;20.93;9.43;;;-4.00;99.90;;;;;;5019704;28;20200;-63
2024/01/11 06:02:53;;;;;;;24.47;9.40;;;-4.00;99.90;;;;;;5013226;28;20173;-63
2024/01/11 06:05:19;;;;;;;23.10;9.87;;;-4.00;99.90;;;;;;5012929;28;20651;-63
2024/01/11 06:07:44;;;;;;;24.20;9.57;;;-3.90;99.90;;;;;;5021681;28;20230;-63
2024/01/11 06:10:10;;;;;;;24.60;11.30;;;-3.80;99.90;;;;;;4999666;28;20188;-62
2024/01/11 06:12:36;;;;;;;25.67;11.50;;;-3.80;99.90;;;;;;5002189;28;20207;-64
2024/01/11 06:15:02;;;;;;;24.13;9.77;;;-3.70;99.90;;;;;;5004417;28;20318;-62
2024/01/11 06:17:28;;;;;;;22.50;10.47;;;-3.70;99.90;;;;;;5010557;28;20729;-64
2024/01/11 06:19:54;;;;;;;18.60;9.03;;;-3.70;99.90;;;;;;5011526;28;20462;-62
2024/01/11 06:22:20;;;;;;;29.90;11.57;;;-3.70;99.90;;;;;;5012628;28;20198;-64
2024/01/11 06:24:45;;;;;;;28.63;11.20;;;-3.60;99.90;;;;;;5013912;28;20419;-62
2024/01/11 06:27:11;;;;;;;28.57;12.63;;;-3.50;99.90;;;;;;5007259;28;20277;-63
2024/01/11 06:29:36;;;;;;;24.90;11.23;;;-3.60;99.90;;;;;;5012961;28;20180;-62
2024/01/11 06:32:02;;;;;;;26.47;11.67;;;-3.70;99.90;;;;;;5011656;28;20225;-63
2024/01/11 06:34:28;;;;;;;20.13;11.27;;;-3.60;99.90;;;;;;5006243;28;20520;-62
2024/01/11 06:36:55;;;;;;;28.70;11.57;;;-3.50;99.90;;;;;;5007884;28;20196;-63
2024/01/11 06:39:21;;;;;;;24.37;11.10;;;-3.50;99.90;;;;;;5009933;28;20461;-64
2024/01/11 06:41:46;;;;;;;24.50;10.03;;;-3.40;99.90;;;;;;5009847;28;20412;-63
2024/01/11 06:44:12;;;;;;;37.37;13.00;;;-3.30;99.90;;;;;;5012720;28;20911;-63
2024/01/11 06:46:41;;;;;;;32.47;12.70;;;-3.30;99.90;;;;;;5011699;28;20216;-63
2024/01/11 06:49:07;;;;;;;25.43;12.23;;;-3.30;99.90;;;;;;5012463;28;20422;-63
2024/01/11 06:51:33;;;;;;;28.00;11.40;;;-3.40;99.90;;;;;;5012218;28;20782;-64
2024/01/11 06:54:01;;;;;;;33.23;11.93;;;-3.30;99.90;;;;;;5036568;22;20419;-60
2024/01/11 06:56:27;;;;;;;21.77;11.63;;;-3.30;99.90;;;;;;5044646;28;20767;-60
2024/01/11 06:58:54;;;;;;;27.93;12.40;;;-3.30;99.90;;;;;;5047694;28;20457;-60
2024/01/11 07:01:19;;;;;;;30.63;11.80;;;-3.30;99.90;;;;;;5045827;28;20417;-60
2024/01/11 07:03:45;;;;;;;35.93;10.77;;;-3.30;99.90;;;;;;5049420;28;20424;-60
2024/01/11 07:06:10;;;;;;;25.93;11.50;;;-3.30;99.90;;;;;;5052772;28;20265;-59
2024/01/11 07:08:36;;;;;;;30.40;12.00;;;-3.20;99.90;;;;;;5052186;28;20259;-60
2024/01/11 07:11:02;;;;;;;24.13;12.07;;;-3.20;99.90;;;;;;5052474;28;20667;-60
2024/01/11 07:13:29;;;;;;;32.47;12.63;;;-3.10;99.90;;;;;;5042791;28;20236;-61
2024/01/11 07:15:55;;;;;;;30.13;12.93;;;-3.20;99.90;;;;;;5053636;28;20973;-60
2024/01/11 07:18:21;;;;;;;28.17;14.47;;;-3.10;99.90;;;;;;5053472;28;20921;-60
2024/01/11 07:20:47;;;;;;;30.77;12.10;;;-3.10;99.90;;;;;;5051636;28;20444;-60
2024/01/11 07:23:13;;;;;;;41.03;13.80;;;-3.10;99.90;;;;;;5050808;28;20421;-60
2024/01/11 07:25:39;;;;;;;29.87;12.23;;;-3.00;99.90;;;;;;5052473;28;20820;-60
2024/01/11 07:28:05;;;;;;;30.87;14.67;;;-2.90;99.90;;;;;;5052376;28;20428;-60
2024/01/11 07:30:30;;;;;;;27.23;13.20;;;-2.90;99.90;;;;;;5051151;28;20187;-61
2024/01/11 07:32:56;;;;;;;37.97;13.53;;;-3.00;99.90;;;;;;5051941;28;20429;-62
2024/01/11 07:35:22;;;;;;;27.63;12.90;;;-3.00;99.90;;;;;;5057660;28;20288;-61
2024/01/11 07:37:47;;;;;;;33.87;15.30;;;-2.90;99.90;;;;;;5034258;28;20183;-61
2024/01/11 07:40:13;;;;;;;35.17;13.10;;;-2.80;99.90;;;;;;5055566;28;20207;-61
2024/01/11 07:42:39;;;;;;;32.67;11.83;;;-2.80;99.90;;;;;;5051771;28;20649;-61
2024/01/11 07:45:12;;;;;;;29.13;13.17;;;-2.80;99.90;;;;;;5051343;28;20747;-61
2024/01/11 07:47:38;;;;;;;33.27;14.60;;;-2.70;99.90;;;;;;5045664;28;20425;-61
2024/01/11 07:50:06;;;;;;;28.67;13.47;;;-2.60;99.90;;;;;;5054602;28;20428;-61
2024/01/11 07:52:32;;;;;;;30.03;13.40;;;-2.70;99.90;;;;;;5050879;28;20421;-61
2024/01/11 07:55:06;;;;;;;27.50;11.93;;;-2.60;99.90;;;;;;5051276;28;20814;-63
2024/01/11 07:57:34;;;;;;;27.83;12.20;;;-2.60;99.90;;;;;;5057203;28;20421;-61
2024/01/11 08:00:00;;;;;;;37.23;13.90;;;-2.60;99.90;;;;;;5050862;28;20457;-60
2024/01/11 08:02:26;;;;;;;26.80;12.33;;;-2.60;99.90;;;;;;5049680;28;20441;-62
2024/01/11 08:04:52;;;;;;;28.03;13.57;;;-2.60;99.90;;;;;;5051375;28;20452;-61
2024/01/11 08:07:18;;;;;;;33.67;14.30;;;-2.60;99.90;;;;;;5044378;28;20427;-61
2024/01/11 08:09:45;;;;;;;29.27;13.40;;;-2.50;99.90;;;;;;5050957;28;20190;-61
2024/01/11 08:12:17;;;;;;;30.63;12.60;;;-2.40;99.90;;;;;;5046945;28;20276;-61
2024/01/11 08:14:43;;;;;;;30.57;14.00;;;-2.50;99.90;;;;;;5045758;28;20543;-61
2024/01/11 08:17:08;;;;;;;31.77;14.00;;;-2.40;99.90;;;;;;5047937;28;20868;-61
2024/01/11 08:19:34;;;;;;;30.77;13.00;;;-2.40;99.90;;;;;;5040775;28;20286;-60
2024/01/11 08:22:00;;;;;;;26.23;15.77;;;-2.50;99.90;;;;;;5040866;28;20570;-61
2024/01/11 08:24:26;;;;;;;30.90;13.30;;;-2.40;99.90;;;;;;5029493;28;20499;-61
2024/01/11 08:26:52;;;;;;;36.60;15.93;;;-2.40;99.90;;;;;;5042363;28;20179;-61
2024/01/11 08:29:20;;;;;;;30.60;13.17;;;-2.30;99.90;;;;;;5043682;28;20187;-62
2024/01/11 08:31:46;;;;;;;32.20;15.40;;;-2.40;99.90;;;;;;5046104;28;20434;-61
2024/01/11 08:34:12;;;;;;;28.63;13.30;;;-2.30;99.90;;;;;;5045141;28;20497;-61
2024/01/11 08:36:38;;;;;;;28.93;13.07;;;-2.50;99.90;;;;;;5040699;28;20433;-60
2024/01/11 08:39:08;;;;;;;28.33;13.43;;;-2.50;99.90;;;;;;5045917;28;20202;-61
2024/01/11 08:41:35;;;;;;;31.50;14.30;;;-2.60;99.90;;;;;;5042511;28;20422;-61
2024/01/11 08:44:02;;;;;;;40.60;15.83;;;-2.60;99.90;;;;;;5038715;28;20653;-60
2024/01/11 08:46:28;;;;;;;33.60;13.63;;;-2.50;99.90;;;;;;5046641;28;20421;-60
2024/01/11 08:48:55;;;;;;;32.07;13.60;;;-2.50;99.90;;;;;;5037293;28;20445;-60
2024/01/11 08:51:21;;;;;;;35.60;13.90;;;-2.40;99.90;;;;;;5047316;28;20796;-60
2024/01/11 08:53:47;;;;;;;38.00;14.27;;;-2.50;99.90;;;;;;5043763;28;20427;-61
2024/01/11 08:56:13;;;;;;;34.40;15.77;;;-2.40;99.90;;;;;;5045966;28;20469;-59
2024/01/11 08:58:42;;;;;;;35.13;13.40;;;-2.40;99.90;;;;;;5036208;28;21595;-61
2024/01/11 09:01:08;;;;;;;30.73;14.40;;;-2.20;99.90;;;;;;5047430;28;20521;-61
2024/01/11 09:03:35;;;;;;;27.20;13.10;;;-2.20;99.90;;;;;;5050560;28;20854;-61
2024/01/11 09:06:01;;;;;;;33.63;15.70;;;-2.20;99.90;;;;;;5048138;28;20456;-61
2024/01/11 09:08:26;;;;;;;25.97;13.50;;;-1.90;99.90;;;;;;5055718;28;20437;-61
2024/01/11 09:10:53;;;;;;;37.90;13.47;;;-2.00;99.90;;;;;;5048596;28;20491;-61
2024/01/11 09:13:18;;;;;;;32.47;13.20;;;-2.00;99.90;;;;;;5048495;28;20641;-61
2024/01/11 09:15:44;;;;;;;30.70;15.13;;;-2.00;99.90;;;;;;5050593;28;20511;-61
2024/01/11 09:18:10;;;;;;;32.77;15.20;;;-1.80;99.90;;;;;;5048735;28;20189;-61
2024/01/11 09:20:35;;;;;;;27.03;13.50;;;-1.80;99.90;;;;;;5051421;28;20298;-61
2024/01/11 09:23:04;;;;;;;27.30;14.77;;;-1.70;99.90;;;;;;5045839;28;20246;-61
2024/01/11 09:25:30;;;;;;;31.63;12.10;;;-1.70;99.90;;;;;;5044305;28;20470;-60
2024/01/11 09:27:56;;;;;;;36.47;16.10;;;-1.80;99.90;;;;;;5023218;28;20797;-59
2024/01/11 09:30:21;;;;;;;27.13;11.73;;;-1.60;99.90;;;;;;5051717;28;20417;-59
2024/01/11 09:32:50;;;;;;;25.27;13.50;;;-1.50;99.90;;;;;;5056836;28;20191;-62
2024/01/11 09:35:15;;;;;;;34.67;14.70;;;-1.40;99.90;;;;;;5053376;28;20221;-60
2024/01/11 09:37:42;;;;;;;37.27;14.53;;;-1.60;99.90;;;;;;5053859;28;20512;-61
2024/01/11 09:40:10;;;;;;;33.30;16.10;;;-1.40;99.90;;;;;;5053598;28;20202;-60
2024/01/11 09:42:40;;;;;;;33.20;14.17;;;-1.60;99.90;;;;;;5050844;28;20504;-61
2024/01/11 09:45:12;;;;;;;24.10;13.43;;;-1.70;99.90;;;;;;5032278;28;20449;-61
2024/01/11 09:47:39;;;;;;;31.73;13.80;;;-1.80;99.90;;;;;;5053571;28;20444;-60
2024/01/11 09:50:06;;;;;;;33.50;15.73;;;-1.70;99.90;;;;;;5035733;28;20755;-61
2024/01/11 09:52:32;;;;;;;39.77;16.97;;;-1.70;99.90;;;;;;5050604;28;20919;-61
2024/01/11 09:55:01;;;;;;;32.63;14.60;;;-1.70;99.90;;;;;;5053862;28;20481;-61
2024/01/11 09:57:32;;;;;;;31.57;13.90;;;-1.70;99.90;;;;;;5054492;28;20421;-61
2024/01/11 09:59:58;;;;;;;31.20;16.33;;;-1.70;99.90;;;;;;5053680;28;20455;-60
2024/01/11 10:02:28;;;;;;;28.77;15.77;;;-1.80;99.90;;;;;;5048582;28;20417;-61
2024/01/11 10:04:54;;;;;;;37.30;15.23;;;-1.70;99.90;;;;;;5047389;28;20441;-61
2024/01/11 10:07:22;;;;;;;31.27;15.80;;;-1.70;99.90;;;;;;5045956;28;20421;-61
2024/01/11 10:09:49;;;;;;;29.33;14.93;;;-1.70;99.90;;;;;;5052138;28;20487;-59
2024/01/11 10:12:15;;;;;;;34.57;16.80;;;-1.40;99.90;;;;;;5059006;28;20421;-59
2024/01/11 10:14:41;;;;;;;25.17;14.73;;;-1.40;99.90;;;;;;5048661;28;20438;-60
2024/01/11 10:17:07;;;;;;;31.60;13.90;;;-1.50;99.90;;;;;;5046748;28;20877;-60
2024/01/11 10:19:32;;;;;;;38.30;16.33;;;-1.30;99.90;;;;;;5053013;28;21034;-59
2024/01/11 10:21:58;;;;;;;30.43;14.60;;;-1.30;99.90;;;;;;5062092;28;20513;-62
2024/01/11 10:24:28;;;;;;;24.03;12.77;;;-1.40;99.90;;;;;;5056197;28;20731;-59
2024/01/11 10:27:03;;;;;;;30.97;15.00;;;-1.40;99.90;;;;;;5062426;28;20196;-60
2024/01/11 10:29:33;;;;;;;28.77;14.87;;;-1.30;99.90;;;;;;5052786;28;20867;-60
2024/01/11 10:31:59;;;;;;;33.47;13.87;;;-1.20;99.90;;;;;;5053015;28;20647;-60
2024/01/11 10:34:25;;;;;;;36.80;15.47;;;-1.10;99.90;;;;;;5053468;28;20528;-60
2024/01/11 10:36:51;;;;;;;29.67;15.03;;;-1.20;99.90;;;;;;5053206;28;20213;-60
2024/01/11 10:39:17;;;;;;;32.37;15.80;;;-1.30;99.90;;;;;;5046094;28;20453;-60
2024/01/11 10:41:49;;;;;;;27.80;15.10;;;-1.40;99.90;;;;;;5053846;28;20413;-60
2024/01/11 10:44:22;;;;;;;27.17;13.53;;;-1.30;99.90;;;;;;5044271;28;20453;-60
2024/01/11 10:46:49;;;;;;;26.97;13.73;;;-1.20;99.90;;;;;;5050108;28;20421;-59
2024/01/11 10:49:19;;;;;;;27.20;13.70;;;-1.10;99.90;;;;;;5035140;28;20787;-60
2024/01/11 10:51:58;;;;;;;28.67;17.33;;;-1.00;99.90;;;;;;5040802;28;20437;-61
2024/01/11 10:54:24;;;;;;;30.53;15.40;;;-0.90;99.90;;;;;;5029003;28;20449;-61
2024/01/11 10:56:51;;;;;;;28.80;13.77;;;-0.90;99.90;;;;;;5049995;28;20453;-61
2024/01/11 10:59:19;;;;;;;26.37;12.30;;;-0.90;99.90;;;;;;5047913;28;20465;-59
2024/01/11 11:01:47;;;;;;;25.30;13.67;;;-0.80;99.90;;;;;;5045611;28;20466;-61
2024/01/11 11:04:15;;;;;;;28.30;13.17;;;-0.70;99.90;;;;;;5051137;28;20531;-60
2024/01/11 11:06:42;;;;;;;28.60;14.87;;;-0.70;99.90;;;;;;5046958;28;20408;-59
2024/01/11 11:09:10;;;;;;;26.13;13.63;;;-0.80;99.90;;;;;;5049393;28;21258;-60
2024/01/11 11:11:37;;;;;;;23.27;12.93;;;-0.90;99.90;;;;;;5053715;28;20456;-60
2024/01/11 11:14:04;;;;;;;27.63;15.37;;;-0.80;99.90;;;;;;5028981;28;20425;-61
2024/01/11 11:16:30;;;;;;;25.10;14.60;;;-0.90;99.90;;;;;;5042448;28;20427;-61
2024/01/11 11:18:56;;;;;;;25.60;13.93;;;-1.00;99.90;;;;;;5042845;28;20459;-60
2024/01/11 11:21:24;;;;;;;25.77;13.10;;;-0.90;99.90;;;;;;5043841;28;20198;-61
2024/01/11 11:23:50;;;;;;;23.33;12.03;;;-0.80;99.90;;;;;;5062136;28;20445;-60
2024/01/11 11:26:19;;;;;;;21.60;12.37;;;-0.70;99.90;;;;;;5043973;28;20449;-60
2024/01/11 11:28:48;;;;;;;26.53;14.23;;;-0.80;99.90;;;;;;5056450;28;20418;-59
2024/01/11 11:31:45;;;;;;;28.43;14.43;;;-0.90;99.90;;;;;;5047038;28;20838;-59
2024/01/11 11:34:12;;;;;;;26.37;12.20;;;-0.80;99.90;;;;;;5038873;28;20449;-61
2024/01/11 11:36:43;;;;;;;25.23;14.10;;;-0.80;99.90;;;;;;5039368;28;20454;-60
2024/01/11 11:39:13;;;;;;;25.43;12.47;;;-0.70;99.90;;;;;;5054535;28;20445;-60
2024/01/11 11:41:40;;;;;;;24.10;13.90;;;-0.70;99.90;;;;;;5055861;28;20524;-60
2024/01/11 11:44:06;;;;;;;24.83;12.60;;;-0.70;99.90;;;;;;5044049;28;20799;-59
2024/01/11 11:46:33;;;;;;;21.07;13.47;;;-0.60;99.90;;;;;;5051897;28;20410;-59
2024/01/11 11:48:59;;;;;;;22.13;13.63;;;-0.50;99.90;;;;;;5051769;28;20832;-60
2024/01/11 11:51:25;;;;;;;26.93;13.73;;;-0.50;99.90;;;;;;5052326;28;20491;-60
2024/01/11 11:53:52;;;;;;;27.00;11.77;;;-0.50;99.90;;;;;;5051618;28;20463;-60
2024/01/11 11:56:22;;;;;;;25.30;12.37;;;-0.50;99.90;;;;;;5052056;28;20432;-61
2024/01/11 11:58:49;;;;;;;25.33;12.43;;;-0.50;99.90;;;;;;5030378;28;20982;-61
2024/01/11 12:01:17;;;;;;;26.37;12.53;;;-0.50;99.90;;;;;;5058063;28;20515;-61
2024/01/11 12:03:50;;;;;;;24.43;13.67;;;-0.40;99.90;;;;;;5053458;28;20418;-60
2024/01/11 12:06:22;;;;;;;25.40;12.67;;;-0.50;99.90;;;;;;5063306;28;20495;-61
2024/01/11 12:08:49;;;;;;;25.20;13.03;;;-0.40;99.90;;;;;;5066403;28;20895;-59
2024/01/11 12:11:19;;;;;;;27.37;14.73;;;-0.40;99.90;;;;;;5051163;28;20508;-59
2024/01/11 12:13:46;;;;;;;26.97;14.17;;;-0.40;99.90;;;;;;5051202;28;20405;-59
2024/01/11 12:16:11;;;;;;;26.33;11.30;;;-0.40;99.90;;;;;;5050688;28;20524;-61
2024/01/11 12:18:37;;;;;;;25.57;13.00;;;-0.30;99.90;;;;;;5049343;28;20492;-60
2024/01/11 12:21:03;;;;;;;26.20;14.90;;;-0.40;99.90;;;;;;5049186;28;20915;-60
2024/01/11 12:23:33;;;;;;;24.07;14.00;;;-0.40;99.90;;;;;;5049143;28;20640;-60
2024/01/11 12:26:00;;;;;;;22.43;11.30;;;-0.30;99.90;;;;;;5053497;28;20959;-60
2024/01/11 12:28:26;;;;;;;25.00;13.13;;;-0.30;99.90;;;;;;5034298;28;20430;-59
2024/01/11 12:30:51;;;;;;;26.03;14.30;;;-0.30;99.90;;;;;;5045759;28;20460;-60